createdAt,value
2023-01-31T00:03:14.608Z,1.58
2023-01-31T00:13:43.466Z,1.48
2023-01-31T00:24:13.268Z,1.47
2023-01-31T00:34:40.893Z,1.49
2023-01-31T00:45:10.950Z,1.62
2023-01-31T00:55:38.662Z,1.78
2023-01-31T01:06:07.383Z,1.90
2023-01-31T01:16:35.534Z,1.98
2023-01-31T01:27:05.451Z,2.01
2023-01-31T01:37:34.276Z,2.01
2023-01-31T01:48:08.910Z,1.98
2023-01-31T01:58:41.149Z,2.00
2023-01-31T02:09:15.768Z,1.97
2023-01-31T02:19:56.971Z,1.87
2023-01-31T02:31:00.894Z,1.86
2023-01-31T02:41:35.005Z,1.96
2023-01-31T02:52:18.037Z,2.04
2023-01-31T03:02:46.122Z,2.17
2023-01-31T03:13:30.264Z,2.24
2023-01-31T03:24:00.588Z,2.14
2023-01-31T03:34:29.069Z,2.10
2023-01-31T03:45:03.179Z,2.06
2023-01-31T03:55:36.930Z,1.88
2023-01-31T04:06:05.216Z,1.82
2023-01-31T04:16:33.435Z,1.86
2023-01-31T04:27:00.906Z,1.75
2023-01-31T04:37:28.426Z,1.66
2023-01-31T04:47:56.202Z,1.71
2023-01-31T04:58:24.828Z,1.74
2023-01-31T05:08:54.686Z,1.74
2023-01-31T05:19:22.249Z,1.73
2023-01-31T05:29:50.516Z,1.66
2023-01-31T05:40:19.622Z,1.52
2023-01-31T05:50:50.101Z,1.39
2023-01-31T06:01:18.658Z,1.45
2023-01-31T06:11:46.276Z,1.55
2023-01-31T06:22:14.524Z,1.75
2023-01-31T06:32:42.636Z,1.83
2023-01-31T06:43:10.808Z,1.80
2023-01-31T06:53:38.965Z,1.71
2023-01-31T07:04:07.144Z,1.63
2023-01-31T07:14:35.548Z,1.73
2023-01-31T07:25:04.332Z,1.77
2023-01-31T07:35:31.094Z,1.78
2023-01-31T07:45:59.853Z,1.95
2023-01-31T07:56:26.419Z,2.02
2023-01-31T08:06:56.847Z,2.08
2023-01-31T08:17:25.047Z,2.14
2023-01-31T08:27:53.357Z,2.13
2023-01-31T08:38:21.925Z,2.09
2023-01-31T08:48:48.504Z,2.08
2023-01-31T08:59:16.727Z,2.08
2023-01-31T09:09:45.010Z,2.13
2023-01-31T09:20:13.965Z,2.20
2023-01-31T09:30:41.660Z,2.39
2023-01-31T09:41:21.029Z,2.43
2023-01-31T09:51:54.000Z,2.41
2023-01-31T10:02:41.178Z,2.33
2023-01-31T10:13:18.743Z,2.34
2023-01-31T10:23:52.150Z,2.39
2023-01-31T10:34:25.126Z,2.52
2023-01-31T10:44:57.057Z,2.62
2023-01-31T10:55:49.271Z,2.69
2023-01-31T11:06:17.871Z,2.77
2023-01-31T11:16:46.132Z,2.96
2023-01-31T11:27:23.055Z,3.06
2023-01-31T11:37:55.490Z,3.00
2023-01-31T11:48:26.929Z,3.03
2023-01-31T11:58:57.843Z,3.07
2023-01-31T12:09:28.389Z,3.03
2023-01-31T12:20:27.189Z,2.97
2023-01-31T12:31:15.948Z,3.09
2023-01-31T12:41:49.532Z,3.27
2023-01-31T12:52:26.904Z,3.39
2023-01-31T13:03:08.267Z,3.35
2023-01-31T13:13:42.351Z,3.15
2023-01-31T13:24:14.854Z,3.19
2023-01-31T13:34:51.440Z,3.34
2023-01-31T13:45:25.733Z,2.98
2023-01-31T13:55:54.314Z,2.76
2023-01-31T14:06:22.032Z,2.81
2023-01-31T14:16:52.909Z,2.87
2023-01-31T14:27:24.110Z,3.00
2023-01-31T14:37:59.467Z,3.21
2023-01-31T14:48:41.749Z,3.25
2023-01-31T14:59:28.540Z,3.18
2023-01-31T15:09:56.540Z,3.22
2023-01-31T15:20:43.318Z,3.14
2023-01-31T15:31:33.085Z,3.04
2023-01-31T15:42:20.691Z,2.80
2023-01-31T15:52:48.349Z,2.48
2023-01-31T16:03:23.470Z,2.20
2023-01-31T16:13:52.275Z,2.06
2023-01-31T16:24:21.660Z,2.09
2023-01-31T16:34:56.498Z,2.11
2023-01-31T16:45:35.611Z,2.18
2023-01-31T16:56:24.144Z,2.23
2023-01-31T17:07:05.380Z,2.28
2023-01-31T17:17:37.349Z,2.31
2023-01-31T17:28:06.275Z,2.30
2023-01-31T17:38:34.223Z,2.31
2023-01-31T17:49:02.203Z,2.34
2023-01-31T17:59:30.043Z,2.20
2023-01-31T18:09:58.551Z,2.05
2023-01-31T18:20:26.698Z,1.95
2023-01-31T18:30:55.072Z,1.92
2023-01-31T18:41:23.788Z,1.90
2023-01-31T18:51:50.897Z,1.89
2023-01-31T19:02:18.887Z,1.85
2023-01-31T19:12:46.475Z,1.84
2023-01-31T19:23:15.010Z,1.78
2023-01-31T19:33:43.232Z,1.67
2023-01-31T19:44:11.903Z,1.63
2023-01-31T19:54:41.485Z,1.57
2023-01-31T20:05:10.291Z,1.53
2023-01-31T20:15:37.771Z,1.62
2023-01-31T20:26:05.314Z,1.73
2023-01-31T20:36:33.271Z,1.77
2023-01-31T20:47:01.504Z,1.77
2023-01-31T20:57:29.791Z,1.73
2023-01-31T21:07:57.993Z,1.70
2023-01-31T21:18:29.404Z,1.75
2023-01-31T21:29:00.680Z,1.78
2023-01-31T21:39:29.554Z,1.79
2023-01-31T21:49:57.654Z,1.77
2023-01-31T22:00:26.145Z,1.78
2023-01-31T22:11:01.373Z,1.80
2023-01-31T22:21:30.887Z,1.83
2023-01-31T22:31:58.664Z,1.86
2023-01-31T22:42:26.288Z,1.92
2023-01-31T22:52:54.383Z,2.01
2023-01-31T23:03:23.014Z,2.01
2023-01-31T23:13:51.451Z,2.03
2023-01-31T23:24:20.511Z,2.06
2023-01-31T23:34:48.710Z,2.15
2023-01-31T23:45:16.635Z,2.18
2023-01-31T23:55:44.275Z,2.17
